Time;durP1;ratioP1;P1;durP2;ratioP2;P2;SDS_P1;SDS_P2;PMS_P1;PMS_P2;Temp;Humidity;BMP_temperature;BMP_pressure;BME280_temperature;BME280_humidity;BME280_pressure;Samples;Min_cycle;Max_cycle;Signal;HPM_P1;HPM_P2
2022/06/05 00:00:29;;;;;;;6.00;2.72;;;;;;;;;;5005484;28;97931;-75
2022/06/05 00:02:59;;;;;;;6.75;3.10;;;;;;;;;;4993386;28;97316;-76
2022/06/05 00:05:36;;;;;;;6.68;3.55;;;;;;;;;;5008723;28;95431;-76
2022/06/05 00:08:05;;;;;;;5.40;3.42;;;;;;;;;;5011635;28;97348;-76
2022/06/05 00:10:36;;;;;;;5.60;3.40;;;;;;;;;;5009031;28;95362;-74
2022/06/05 00:13:21;;;;;;;5.23;3.10;;;;;;;;;;5011769;28;95579;-73
2022/06/05 00:15:48;;;;;;;5.45;3.05;;;;;;;;;;5009949;28;97461;-77
2022/06/05 00:18:14;;;;;;;5.05;2.90;;;;;;;;;;5009452;28;95430;-77
2022/06/05 00:20:42;;;;;;;6.53;3.45;;;;;;;;;;5001038;28;96431;-77
2022/06/05 00:23:08;;;;;;;5.43;3.05;;;;;;;;;;5002956;28;97414;-77
2022/06/05 00:25:57;;;;;;;6.32;3.30;;;;;;;;;;5010656;28;95379;-77
2022/06/05 00:28:36;;;;;;;6.65;3.38;;;;;;;;;;5011343;28;95952;-77
2022/06/05 00:31:03;;;;;;;6.70;3.25;;;;;;;;;;5009526;28;95593;-77
2022/06/05 00:33:36;;;;;;;6.13;3.53;;;;;;;;;;5012850;28;98267;-77
2022/06/05 00:36:10;;;;;;;6.68;3.05;;;;;;;;;;5011926;28;96136;-77
2022/06/05 00:38:43;;;;;;;7.82;3.10;;;;;;;;;;5011575;28;95517;-76
2022/06/05 00:41:19;;;;;;;5.45;3.00;;;;;;;;;;5011968;28;95719;-77
2022/06/05 00:43:47;;;;;;;6.18;3.20;;;;;;;;;;5000496;28;97394;-75
2022/06/05 00:46:14;;;;;;;6.82;3.38;;;;;;;;;;4994795;28;95262;-76
2022/06/05 00:48:40;;;;;;;6.18;3.42;;;;;;;;;;4993895;28;96886;-76
2022/06/05 00:51:06;;;;;;;8.60;3.60;;;;;;;;;;4997281;28;96241;-78
2022/06/05 00:53:33;;;;;;;8.75;3.13;;;;;;;;;;4991362;28;96524;-76
2022/06/05 00:56:00;;;;;;;6.22;3.47;;;;;;;;;;4974995;28;97382;-76
2022/06/05 00:58:26;;;;;;;5.82;3.42;;;;;;;;;;5005982;28;95529;-75
2022/06/05 01:00:54;;;;;;;5.40;3.05;;;;;;;;;;4994257;28;96543;-76
2022/06/05 01:03:21;;;;;;;6.70;3.35;;;;;;;;;;4994626;28;97386;-76
2022/06/05 01:05:48;;;;;;;6.32;3.45;;;;;;;;;;4999434;28;95370;-76
2022/06/05 01:08:15;;;;;;;5.75;3.28;;;;;;;;;;4992395;28;95704;-77
2022/06/05 01:11:00;;;;;;;6.32;3.45;;;;;;;;;;5003945;28;97385;-78
2022/06/05 01:13:39;;;;;;;7.72;3.65;;;;;;;;;;5011080;28;95360;-77
2022/06/05 01:16:24;;;;;;;6.88;3.35;;;;;;;;;;4993612;28;96367;-75
2022/06/05 01:19:01;;;;;;;6.35;3.65;;;;;;;;;;4993793;28;95436;-76
2022/06/05 01:21:39;;;;;;;6.50;3.47;;;;;;;;;;5010967;28;96828;-77
2022/06/05 01:24:11;;;;;;;6.10;3.38;;;;;;;;;;5000893;28;96283;-76
2022/06/05 01:26:40;;;;;;;6.82;3.30;;;;;;;;;;4993062;28;95190;-76
2022/06/05 01:29:13;;;;;;;5.53;3.55;;;;;;;;;;4993649;28;96600;-76
2022/06/05 01:31:39;;;;;;;;;;;;;;;;;;4993644;28;97558;-77
2022/06/05 01:34:12;;;;;;;5.53;3.22;;;;;;;;;;5002769;28;119330;-76
2022/06/05 01:37:01;;;;;;;5.20;3.30;;;;;;;;;;5014972;28;96795;-77
2022/06/05 01:39:31;;;;;;;6.55;3.50;;;;;;;;;;5004850;28;95262;-76
2022/06/05 01:42:02;;;;;;;7.43;3.20;;;;;;;;;;5013828;28;96875;-76
2022/06/05 01:44:35;;;;;;;6.85;3.80;;;;;;;;;;4992754;28;97660;-75
2022/06/05 01:47:06;;;;;;;6.57;3.65;;;;;;;;;;4993685;28;95147;-77
2022/06/05 01:49:38;;;;;;;7.70;3.50;;;;;;;;;;4992877;28;96827;-76
2022/06/05 01:52:12;;;;;;;10.27;3.43;;;;;;;;;;4994940;28;96037;-75
2022/06/05 01:54:52;;;;;;;8.32;4.18;;;;;;;;;;5001790;28;95229;-76
2022/06/05 01:57:20;;;;;;;8.68;3.13;;;;;;;;;;4999334;28;95693;-76
2022/06/05 01:59:53;;;;;;;8.50;4.03;;;;;;;;;;5015777;28;96259;-76
2022/06/05 02:02:24;;;;;;;7.68;3.65;;;;;;;;;;5011491;28;96768;-76
2022/06/05 02:05:01;;;;;;;6.53;3.63;;;;;;;;;;5011406;28;97443;-77
2022/06/05 02:07:37;;;;;;;8.43;3.95;;;;;;;;;;5010730;28;95322;-74
2022/06/05 02:10:13;;;;;;;9.02;3.70;;;;;;;;;;4993285;28;96733;-76
2022/06/05 02:12:39;;;;;;;5.95;3.25;;;;;;;;;;5001008;28;97424;-76
2022/06/05 02:15:06;;;;;;;6.50;3.60;;;;;;;;;;5005250;28;96098;-77
2022/06/05 02:17:36;;;;;;;8.68;3.85;;;;;;;;;;5011999;28;96847;-75
2022/06/05 02:20:05;;;;;;;5.85;3.70;;;;;;;;;;5012698;28;97619;-75
2022/06/05 02:22:52;;;;;;;6.20;4.07;;;;;;;;;;4995477;28;97108;-76
2022/06/05 02:25:21;;;;;;;7.07;4.10;;;;;;;;;;4993101;28;97419;-77
2022/06/05 02:27:47;;;;;;;7.30;3.78;;;;;;;;;;4993183;28;95170;-74
2022/06/05 02:30:15;;;;;;;6.07;3.47;;;;;;;;;;4992744;28;95698;-74
2022/06/05 02:32:47;;;;;;;10.52;4.35;;;;;;;;;;5002175;28;97136;-74
2022/06/05 02:35:32;;;;;;;8.27;3.78;;;;;;;;;;4999844;28;96388;-75
2022/06/05 02:38:17;;;;;;;5.78;3.53;;;;;;;;;;4993102;28;96936;-74
2022/06/05 02:40:58;;;;;;;6.70;4.25;;;;;;;;;;4990845;28;96147;-75
2022/06/05 02:44:28;;;;;;;8.52;3.67;;;;;;;;;;5002629;28;96549;-75
2022/06/05 02:46:38;;;;;;;7.88;3.95;;;;;;;;;;4999302;28;99993;-76
2022/06/05 02:49:28;;;;;;;6.75;4.15;;;;;;;;;;5012783;28;95055;-74
2022/06/05 02:51:56;;;;;;;7.13;3.80;;;;;;;;;;5001035;28;96300;-75
2022/06/05 02:54:25;;;;;;;7.63;4.00;;;;;;;;;;5007411;28;96638;-74
2022/06/05 02:56:52;;;;;;;10.15;4.45;;;;;;;;;;5012811;28;95405;-74
2022/06/05 02:59:19;;;;;;;8.05;4.22;;;;;;;;;;5012048;28;95997;-77
2022/06/05 03:04:30;;;;;;;6.43;3.70;;;;;;;;;;5003042;28;95940;-77
2022/06/05 03:06:57;;;;;;;6.47;3.90;;;;;;;;;;4995487;28;96841;-76
2022/06/05 03:09:23;;;;;;;8.07;4.07;;;;;;;;;;4991670;28;95316;-76
2022/06/05 03:11:50;;;;;;;8.65;4.55;;;;;;;;;;5006761;28;96705;-74
2022/06/05 03:14:16;;;;;;;7.53;4.03;;;;;;;;;;5012058;28;99187;-75
2022/06/05 03:16:42;;;;;;;7.93;4.20;;;;;;;;;;5010605;28;94974;-74
2022/06/05 03:19:09;;;;;;;6.90;3.75;;;;;;;;;;5012753;28;97412;-76
2022/06/05 03:21:37;;;;;;;8.05;4.05;;;;;;;;;;5008944;28;97367;-77
2022/06/05 03:24:04;;;;;;;9.98;4.38;;;;;;;;;;5012173;28;95346;-74
2022/06/05 03:26:31;;;;;;;8.50;4.20;;;;;;;;;;5000235;28;97119;-76
2022/06/05 03:28:58;;;;;;;9.13;4.63;;;;;;;;;;5014432;28;97139;-75
2022/06/05 03:31:24;;;;;;;9.35;4.57;;;;;;;;;;5002221;28;95414;-77
2022/06/05 03:33:51;;;;;;;7.38;4.15;;;;;;;;;;4992797;28;97412;-77
2022/06/05 03:36:17;;;;;;;8.02;4.15;;;;;;;;;;4991001;28;95391;-77
2022/06/05 03:38:44;;;;;;;6.72;3.97;;;;;;;;;;4992022;28;96824;-76
2022/06/05 03:41:13;;;;;;;8.18;3.78;;;;;;;;;;5001815;28;97446;-77
2022/06/05 03:43:39;;;;;;;7.32;3.97;;;;;;;;;;4991177;28;95261;-77
2022/06/05 03:46:08;;;;;;;7.93;4.40;;;;;;;;;;4995937;28;96725;-77
2022/06/05 03:48:34;;;;;;;8.68;4.50;;;;;;;;;;5009930;28;97695;-76
2022/06/05 03:51:12;;;;;;;8.40;4.40;;;;;;;;;;5002712;28;95415;-77
2022/06/05 03:53:38;;;;;;;7.32;3.90;;;;;;;;;;5007559;28;97412;-75
2022/06/05 03:56:09;;;;;;;8.00;4.35;;;;;;;;;;5010241;28;95585;-77
2022/06/05 03:58:36;;;;;;;7.82;4.80;;;;;;;;;;5010734;28;96774;-78
2022/06/05 04:01:03;;;;;;;7.78;4.45;;;;;;;;;;5008513;28;96404;-76
2022/06/05 04:03:29;;;;;;;8.07;4.38;;;;;;;;;;5011046;28;95192;-77
2022/06/05 04:05:56;;;;;;;9.07;4.50;;;;;;;;;;5012605;28;95720;-77
2022/06/05 04:08:22;;;;;;;7.53;4.53;;;;;;;;;;5000308;28;97363;-77
2022/06/05 04:10:49;;;;;;;11.43;4.65;;;;;;;;;;5006773;28;96901;-73
2022/06/05 04:13:16;;;;;;;7.70;4.13;;;;;;;;;;5012857;28;96724;-77
2022/06/05 04:15:43;;;;;;;9.30;4.80;;;;;;;;;;4995181;28;95151;-76
2022/06/05 04:18:09;;;;;;;9.68;4.78;;;;;;;;;;4994499;28;95789;-76
2022/06/05 04:20:39;;;;;;;8.43;4.70;;;;;;;;;;5002822;28;98779;-74
2022/06/05 04:23:08;;;;;;;8.80;4.78;;;;;;;;;;5006173;28;95342;-77
2022/06/05 04:25:35;;;;;;;9.25;4.25;;;;;;;;;;4998860;28;96681;-77
2022/06/05 04:28:02;;;;;;;10.65;4.72;;;;;;;;;;4993718;28;97329;-76
2022/06/05 04:30:29;;;;;;;10.95;5.07;;;;;;;;;;5004685;28;95238;-77
2022/06/05 04:32:55;;;;;;;8.20;5.03;;;;;;;;;;5017713;28;96769;-75
2022/06/05 04:35:22;;;;;;;8.25;4.72;;;;;;;;;;5014519;28;95477;-77
2022/06/05 04:37:48;;;;;;;8.90;4.95;;;;;;;;;;5011975;28;96711;-77
2022/06/05 04:40:15;;;;;;;11.05;5.22;;;;;;;;;;5010697;28;99291;-76
2022/06/05 04:42:41;;;;;;;9.30;4.20;;;;;;;;;;4994865;28;95276;-76
2022/06/05 04:45:07;;;;;;;9.25;4.47;;;;;;;;;;5003415;28;96741;-77
2022/06/05 04:47:34;;;;;;;8.68;5.25;;;;;;;;;;5007526;28;97252;-74
2022/06/05 04:50:00;;;;;;;9.35;4.82;;;;;;;;;;5008753;28;95269;-76
2022/06/05 04:52:27;;;;;;;9.95;4.65;;;;;;;;;;5001173;28;96982;-76
2022/06/05 04:54:54;;;;;;;11.93;5.82;;;;;;;;;;5016192;28;97298;-75
2022/06/05 04:57:20;;;;;;;11.90;5.45;;;;;;;;;;5004873;28;96932;-75
2022/06/05 04:59:47;;;;;;;11.18;5.00;;;;;;;;;;5002711;28;97311;-75
2022/06/05 05:02:13;;;;;;;12.05;5.05;;;;;;;;;;4993722;28;95273;-74
2022/06/05 05:04:40;;;;;;;8.43;5.07;;;;;;;;;;4994066;28;97708;-74
2022/06/05 05:07:06;;;;;;;8.43;4.45;;;;;;;;;;5010990;28;97193;-76
2022/06/05 19:53:39;;;;;;;15.35;10.18;;;;;;;;;;5028508;28;95349;-73
2022/06/05 19:56:09;;;;;;;17.95;10.32;;;;;;;;;;5017744;28;97218;-73
2022/06/05 19:58:43;;;;;;;17.88;10.63;;;;;;;;;;5007992;28;96645;-73
2022/06/05 20:01:26;;;;;;;21.63;12.70;;;;;;;;;;5005478;28;97361;-73
2022/06/05 20:03:54;;;;;;;18.80;11.65;;;;;;;;;;5010745;28;97394;-73
2022/06/05 20:06:22;;;;;;;18.38;10.95;;;;;;;;;;5028390;28;95378;-74
2022/06/05 20:08:50;;;;;;;18.27;11.15;;;;;;;;;;5011059;28;96816;-75
2022/06/05 20:11:19;;;;;;;18.33;11.18;;;;;;;;;;5005046;28;97369;-75
2022/06/05 20:13:47;;;;;;;16.98;10.25;;;;;;;;;;5012915;28;95392;-74
2022/06/05 20:16:21;;;;;;;15.60;10.95;;;;;;;;;;5027888;28;97681;-75
2022/06/05 20:18:47;;;;;;;21.30;11.73;;;;;;;;;;5014595;27;95193;-75
2022/06/05 20:21:20;;;;;;;17.25;10.90;;;;;;;;;;5006273;28;96992;-74
2022/06/05 20:23:52;;;;;;;18.83;11.68;;;;;;;;;;5006412;28;97284;-75
2022/06/05 20:26:34;;;;;;;17.27;11.02;;;;;;;;;;5004405;28;95376;-75
2022/06/05 20:29:06;;;;;;;19.25;10.02;;;;;;;;;;5007597;28;98157;-75
2022/06/05 20:31:37;;;;;;;17.20;10.07;;;;;;;;;;5005296;28;97581;-75
2022/06/05 20:34:20;;;;;;;18.25;10.35;;;;;;;;;;5007632;28;95250;-74
2022/06/05 20:36:59;;;;;;;19.77;10.45;;;;;;;;;;5030145;27;96550;-74
2022/06/05 20:39:40;;;;;;;13.50;9.45;;;;;;;;;;4990985;28;96980;-74
2022/06/05 20:42:14;;;;;;;16.00;10.30;;;;;;;;;;5002928;28;96717;-74
2022/06/05 20:44:53;;;;;;;15.77;9.52;;;;;;;;;;5007768;28;97339;-74
2022/06/05 20:47:24;;;;;;;15.23;9.93;;;;;;;;;;5017366;28;95351;-74
2022/06/05 20:49:54;;;;;;;17.50;9.57;;;;;;;;;;5008825;28;97419;-74
2022/06/05 20:52:24;;;;;;;17.50;9.90;;;;;;;;;;5008077;28;97415;-75
2022/06/05 20:54:52;;;;;;;15.73;9.55;;;;;;;;;;5007212;28;95251;-74
2022/06/05 20:57:25;;;;;;;16.63;9.57;;;;;;;;;;5007687;28;97135;-74
2022/06/05 20:59:52;;;;;;;13.82;8.57;;;;;;;;;;5010648;28;97343;-74
2022/06/05 21:07:52;;;;;;;12.15;7.68;;;;;;;;;;4998542;28;95532;-74
2022/06/05 21:10:19;;;;;;;12.35;7.10;;;;;;;;;;4993611;28;97121;-74
2022/06/05 21:18:20;;;;;;;12.15;6.90;;;;;;;;;;4994587;28;97054;-74
2022/06/05 21:20:48;;;;;;;11.52;6.70;;;;;;;;;;4995237;28;97429;-74
2022/06/05 21:23:15;;;;;;;10.80;6.80;;;;;;;;;;4998689;28;95241;-74
2022/06/05 21:25:43;;;;;;;11.52;6.47;;;;;;;;;;4992862;28;97442;-75
2022/06/05 21:28:18;;;;;;;10.60;6.13;;;;;;;;;;4995487;28;95393;-74
2022/06/05 21:30:47;;;;;;;11.55;6.32;;;;;;;;;;4994794;28;96712;-74
2022/06/05 21:33:14;;;;;;;11.05;6.80;;;;;;;;;;4994317;28;97381;-74
2022/06/05 21:35:42;;;;;;;10.25;6.13;;;;;;;;;;4992945;28;95359;-74
2022/06/05 21:38:08;;;;;;;11.43;6.70;;;;;;;;;;4995163;28;96752;-74
2022/06/05 21:40:42;;;;;;;11.77;7.13;;;;;;;;;;4994224;28;97421;-74
2022/06/05 21:43:10;;;;;;;11.27;6.13;;;;;;;;;;4994006;28;95194;-74
2022/06/05 21:45:45;;;;;;;11.25;6.40;;;;;;;;;;5000625;28;96748;-75
2022/06/05 21:48:12;;;;;;;12.07;6.45;;;;;;;;;;5000696;28;95316;-74
2022/06/05 21:50:38;;;;;;;14.25;7.40;;;;;;;;;;4993425;28;96713;-74
2022/06/05 21:53:05;;;;;;;13.05;6.95;;;;;;;;;;4993400;28;97539;-74
2022/06/05 21:55:34;;;;;;;15.05;7.05;;;;;;;;;;4992946;28;95823;-74
2022/06/05 21:58:08;;;;;;;13.57;7.85;;;;;;;;;;5013533;28;96824;-74
2022/06/05 22:00:35;;;;;;;13.68;7.55;;;;;;;;;;5013362;28;97430;-75
2022/06/05 22:03:02;;;;;;;15.75;9.00;;;;;;;;;;4994951;28;95423;-74
2022/06/05 22:05:29;;;;;;;17.42;8.60;;;;;;;;;;4994093;28;97060;-74
2022/06/05 22:07:55;;;;;;;16.23;8.25;;;;;;;;;;5004373;28;95474;-74
2022/06/05 22:10:21;;;;;;;14.63;8.52;;;;;;;;;;4992870;28;96793;-74
2022/06/05 22:12:48;;;;;;;20.08;10.40;;;;;;;;;;4994005;28;97559;-74
2022/06/05 22:15:15;;;;;;;14.65;8.93;;;;;;;;;;4989895;28;96565;-74
2022/06/05 22:17:41;;;;;;;18.95;9.73;;;;;;;;;;4993473;28;96784;-73
2022/06/05 22:20:08;;;;;;;19.88;8.98;;;;;;;;;;4993975;28;97127;-74
2022/06/05 22:22:34;;;;;;;17.90;9.02;;;;;;;;;;4993204;28;95968;-74
2022/06/05 22:25:01;;;;;;;18.65;9.68;;;;;;;;;;4994291;28;97032;-74
2022/06/05 22:27:27;;;;;;;17.88;9.13;;;;;;;;;;5004779;28;97669;-74
2022/06/05 22:29:54;;;;;;;19.33;10.15;;;;;;;;;;4996273;28;96501;-74
2022/06/05 22:32:21;;;;;;;19.08;10.18;;;;;;;;;;4991525;28;97511;-74
2022/06/05 22:34:49;;;;;;;20.13;11.00;;;;;;;;;;4992664;28;95406;-74
2022/06/05 22:37:16;;;;;;;23.50;10.93;;;;;;;;;;4999291;28;97401;-74
2022/06/05 22:39:42;;;;;;;21.75;10.18;;;;;;;;;;5011836;28;97474;-73
2022/06/05 22:42:09;;;;;;;20.50;10.35;;;;;;;;;;5012586;28;95563;-74
2022/06/05 22:44:35;;;;;;;19.10;10.70;;;;;;;;;;5013007;28;95673;-73
2022/06/05 22:47:02;;;;;;;26.65;11.60;;;;;;;;;;5007107;28;97381;-73
2022/06/05 22:49:29;;;;;;;23.77;11.50;;;;;;;;;;4995477;28;95354;-73
2022/06/05 22:51:55;;;;;;;29.88;12.02;;;;;;;;;;4990970;28;97383;-73
2022/06/05 22:54:21;;;;;;;24.65;11.23;;;;;;;;;;4992729;28;95234;-74
2022/06/05 22:56:48;;;;;;;27.50;11.75;;;;;;;;;;4992945;28;95654;-74
2022/06/05 22:59:14;;;;;;;19.52;9.88;;;;;;;;;;5012883;28;97792;-74
2022/06/05 23:01:43;;;;;;;21.17;9.68;;;;;;;;;;5013671;28;95361;-74
2022/06/05 23:04:10;;;;;;;18.85;9.00;;;;;;;;;;4993633;28;96804;-74
2022/06/05 23:06:40;;;;;;;23.48;8.90;;;;;;;;;;4992736;28;97323;-74
2022/06/05 23:09:07;;;;;;;18.27;8.27;;;;;;;;;;4973872;28;95353;-74
2022/06/05 23:11:34;;;;;;;20.58;9.75;;;;;;;;;;4975584;28;96843;-73
2022/06/05 23:14:00;;;;;;;19.83;10.65;;;;;;;;;;4973586;28;95079;-73
2022/06/05 23:16:28;;;;;;;23.02;10.27;;;;;;;;;;4991516;28;96827;-74
2022/06/05 23:21:40;;;;;;;17.33;8.63;;;;;;;;;;4986559;28;95270;-73
2022/06/05 23:24:07;;;;;;;16.23;8.32;;;;;;;;;;4994035;28;97575;-74
2022/06/05 23:26:33;;;;;;;12.25;6.85;;;;;;;;;;5007835;28;97294;-74
2022/06/05 23:29:00;;;;;;;12.55;6.28;;;;;;;;;;4993757;28;96320;-74
2022/06/05 23:31:27;;;;;;;11.50;6.63;;;;;;;;;;4992480;28;97179;-73
2022/06/05 23:33:53;;;;;;;9.57;5.22;;;;;;;;;;4994862;28;97588;-73
2022/06/05 23:36:21;;;;;;;16.40;6.78;;;;;;;;;;4981635;28;97183;-74
2022/06/05 23:38:48;;;;;;;13.30;7.03;;;;;;;;;;4992250;28;97232;-74
2022/06/05 23:41:22;;;;;;;10.13;5.63;;;;;;;;;;4992681;28;94951;-73
2022/06/05 23:43:48;;;;;;;15.38;6.93;;;;;;;;;;4993344;28;96965;-73
2022/06/05 23:46:16;;;;;;;14.32;7.70;;;;;;;;;;4989807;28;97592;-73
2022/06/05 23:48:42;;;;;;;12.85;7.03;;;;;;;;;;4993262;28;95380;-74
2022/06/05 23:51:09;;;;;;;16.08;8.43;;;;;;;;;;4992504;28;96091;-73
2022/06/05 23:53:36;;;;;;;17.73;8.13;;;;;;;;;;4990765;28;97393;-73
2022/06/05 23:56:09;;;;;;;18.75;9.60;;;;;;;;;;5011813;28;95400;-73
2022/06/05 23:58:38;;;;;;;20.30;9.45;;;;;;;;;;5012533;28;97672;-73
